Time;durP1;ratioP1;P1;durP2;ratioP2;P2;SDS_P1;SDS_P2;PMS_P1;PMS_P2;Temp;Humidity;BMP_temperature;BMP_pressure;BME280_temperature;BME280_humidity;BME280_pressure;Samples;Min_cycle;Max_cycle;Signal;HPM_P1;HPM_P2
2022/05/27 00:01:32;;;;;;;8.02;2.10;;;14.60;99.90;;;;;;4953516;28;20055;-73
2022/05/27 00:03:59;;;;;;;4.53;2.15;;;14.60;99.90;;;;;;4953370;28;20099;-73
2022/05/27 00:06:27;;;;;;;6.75;2.20;;;14.60;99.90;;;;;;4934285;29;20435;-73
2022/05/27 00:08:53;;;;;;;3.78;2.00;;;14.70;99.90;;;;;;4934401;29;20028;-73
2022/05/27 00:11:22;;;;;;;5.03;2.45;;;14.70;99.90;;;;;;4934058;29;20032;-73
2022/05/27 00:13:48;;;;;;;6.63;2.55;;;14.70;99.90;;;;;;4944391;28;20035;-73
2022/05/27 00:16:14;;;;;;;7.05;1.98;;;14.70;99.90;;;;;;4952161;29;20027;-73
2022/05/27 00:18:40;;;;;;;4.65;1.95;;;14.70;99.90;;;;;;4937716;29;20700;-73
2022/05/27 00:21:06;;;;;;;4.25;2.08;;;14.70;99.90;;;;;;4938021;29;20096;-72
2022/05/27 00:23:33;;;;;;;4.53;2.00;;;14.70;99.90;;;;;;4937826;29;20027;-73
2022/05/27 00:25:59;;;;;;;8.27;2.38;;;14.60;99.90;;;;;;4932760;29;20038;-73
2022/05/27 00:28:24;;;;;;;6.20;1.98;;;14.60;99.90;;;;;;4937944;29;20095;-73
2022/05/27 00:30:50;;;;;;;10.07;2.88;;;14.60;99.90;;;;;;4937712;29;20395;-73
2022/05/27 00:33:16;;;;;;;6.55;1.73;;;14.60;99.90;;;;;;4937763;29;20027;-73
2022/05/27 00:35:42;;;;;;;5.03;2.70;;;14.50;99.90;;;;;;4951325;29;20039;-73
2022/05/27 00:38:07;;;;;;;7.60;2.40;;;14.50;99.90;;;;;;4956690;29;20020;-73
2022/05/27 00:40:39;;;;;;;6.53;2.00;;;14.50;99.90;;;;;;4940462;29;20121;-73
2022/05/27 00:43:04;;;;;;;5.43;1.95;;;14.50;99.90;;;;;;4918589;29;20103;-72
2022/05/27 00:45:34;;;;;;;3.72;2.05;;;14.40;99.90;;;;;;4943813;28;20448;-73
2022/05/27 00:48:01;;;;;;;5.28;2.20;;;14.40;99.90;;;;;;4956864;28;20031;-72
2022/05/27 00:50:36;;;;;;;5.53;2.03;;;14.30;99.90;;;;;;4956298;28;20034;-73
2022/05/27 00:53:04;;;;;;;4.20;2.00;;;14.30;99.90;;;;;;4971188;28;20023;-73
2022/05/27 00:55:34;;;;;;;7.80;3.00;;;14.30;99.90;;;;;;4943560;28;20051;-73
2022/05/27 00:58:26;;;;;;;7.55;2.55;;;14.30;99.90;;;;;;4937136;29;20030;-72
2022/05/27 01:00:52;;;;;;;4.85;2.67;;;14.30;99.90;;;;;;4935791;29;20395;-73
2022/05/27 01:03:18;;;;;;;7.40;2.70;;;14.30;99.90;;;;;;4936936;29;20028;-73
2022/05/27 01:05:45;;;;;;;11.35;3.55;;;14.40;99.90;;;;;;4950351;29;20043;-73
2022/05/27 01:08:13;;;;;;;8.02;3.00;;;14.30;99.90;;;;;;4955991;28;20110;-73
2022/05/27 01:10:47;;;;;;;7.63;2.83;;;14.30;99.90;;;;;;4956430;28;20024;-73
2022/05/27 01:13:33;;;;;;;5.70;2.88;;;14.30;99.90;;;;;;4950055;29;20051;-72
2022/05/27 01:15:58;;;;;;;5.95;2.58;;;14.30;99.90;;;;;;4873753;29;20509;-72
2022/05/27 01:21:58;;;;;;;11.13;2.47;;;14.20;99.90;;;;;;4878225;29;20072;-72
2022/05/27 01:24:36;;;;;;;6.40;2.80;;;14.40;99.90;;;;;;4851086;29;20034;-73
2022/05/27 01:27:07;;;;;;;8.55;2.45;;;14.40;99.90;;;;;;4862621;29;20125;-72
2022/05/27 01:29:49;;;;;;;6.63;2.30;;;14.40;99.90;;;;;;4876584;29;20038;-73
2022/05/27 01:32:21;;;;;;;5.90;2.58;;;14.40;99.90;;;;;;4877900;29;20313;-72
2022/05/27 01:34:57;;;;;;;9.07;2.80;;;14.40;99.90;;;;;;4872167;29;20041;-72
2022/05/27 01:37:47;;;;;;;6.85;2.70;;;14.40;99.90;;;;;;4843917;29;20042;-73
2022/05/27 01:40:20;;;;;;;7.35;2.72;;;14.50;99.90;;;;;;4841126;29;20030;-73
2022/05/27 01:43:28;;;;;;;6.85;2.60;;;14.50;99.90;;;;;;4840607;29;20038;-73
2022/05/27 01:46:05;;;;;;;8.60;2.83;;;14.60;99.90;;;;;;4872950;29;20036;-72
2022/05/27 01:49:00;;;;;;;10.43;2.88;;;14.60;99.90;;;;;;4862060;29;20374;-73
2022/05/27 01:51:35;;;;;;;4.72;2.65;;;14.60;99.90;;;;;;4870207;29;20060;-73
2022/05/27 01:54:12;;;;;;;7.30;2.90;;;14.60;99.90;;;;;;4946759;29;20046;-73
2022/05/27 01:56:49;;;;;;;7.10;2.38;;;14.60;99.90;;;;;;4955228;28;20030;-73
2022/05/27 01:59:40;;;;;;;7.30;2.45;;;14.60;99.90;;;;;;4950839;28;20526;-73
2022/05/27 02:02:28;;;;;;;6.82;2.83;;;14.60;99.90;;;;;;4947426;29;20065;-73
2022/05/27 02:05:08;;;;;;;8.05;2.38;;;14.60;99.90;;;;;;4955193;28;20059;-73
2022/05/27 02:07:53;;;;;;;6.75;2.42;;;14.60;99.90;;;;;;4954896;28;20031;-73
2022/05/27 02:10:35;;;;;;;3.65;2.08;;;14.60;99.90;;;;;;4955237;28;20030;-73
2022/05/27 02:13:08;;;;;;;6.45;2.42;;;14.70;99.90;;;;;;4934682;29;20098;-73
2022/05/27 02:15:46;;;;;;;5.82;2.58;;;14.70;99.90;;;;;;4935761;29;20095;-72
2022/05/27 02:18:21;;;;;;;4.18;2.28;;;14.70;99.90;;;;;;4935655;29;20019;-73
2022/05/27 02:20:52;;;;;;;6.05;2.90;;;14.70;99.90;;;;;;4935409;29;20082;-73
2022/05/27 02:23:39;;;;;;;5.13;2.17;;;14.70;99.90;;;;;;4935729;29;20121;-73
2022/05/27 02:26:12;;;;;;;6.07;1.98;;;14.70;99.90;;;;;;4935387;29;20110;-73
2022/05/27 02:28:45;;;;;;;6.07;2.35;;;14.70;99.90;;;;;;4935649;29;20023;-73
2022/05/27 02:31:19;;;;;;;9.85;2.63;;;14.70;99.90;;;;;;4936201;29;20035;-73
2022/05/27 02:36:50;;;;;;;4.18;2.20;;;14.70;99.90;;;;;;4915743;29;20039;-73
2022/05/27 02:39:16;;;;;;;4.70;2.30;;;14.70;99.90;;;;;;4916388;29;20027;-73
2022/05/27 02:41:57;;;;;;;4.22;2.08;;;14.70;99.90;;;;;;4930732;29;20046;-73
2022/05/27 02:44:38;;;;;;;5.53;2.28;;;14.70;99.90;;;;;;4954835;28;20027;-73
2022/05/27 02:47:20;;;;;;;6.75;1.95;;;14.70;99.90;;;;;;4954723;28;20399;-73
2022/05/27 02:50:12;;;;;;;7.38;2.10;;;14.70;99.90;;;;;;4954024;28;20023;-73
2022/05/27 02:53:15;;;;;;;5.25;2.22;;;14.80;99.90;;;;;;4953446;28;20085;-73
2022/05/27 02:55:49;;;;;;;9.27;2.55;;;14.80;99.90;;;;;;4945410;29;20043;-73
2022/05/27 02:58:16;;;;;;;8.13;2.30;;;14.80;99.90;;;;;;4935212;29;20372;-73
2022/05/27 03:00:44;;;;;;;5.32;2.30;;;14.80;99.90;;;;;;4934952;29;20506;-73
2022/05/27 03:03:10;;;;;;;5.13;2.50;;;14.80;99.90;;;;;;4915734;29;20024;-73
2022/05/27 03:05:51;;;;;;;5.35;2.15;;;14.80;99.90;;;;;;4929274;29;20056;-73
2022/05/27 03:08:25;;;;;;;5.72;2.25;;;14.70;99.90;;;;;;4934950;29;20042;-73
2022/05/27 03:11:10;;;;;;;8.48;2.30;;;14.70;99.90;;;;;;4937879;29;20070;-73
2022/05/27 03:13:49;;;;;;;6.07;2.30;;;14.70;99.90;;;;;;4944664;29;20055;-73
2022/05/27 03:16:39;;;;;;;4.53;2.10;;;14.70;99.90;;;;;;4934976;29;20043;-73
2022/05/27 03:19:43;;;;;;;5.78;1.90;;;14.70;99.90;;;;;;4934637;29;20570;-73
2022/05/27 03:22:27;;;;;;;6.18;2.10;;;14.70;99.90;;;;;;4935068;29;20111;-73
2022/05/27 03:25:08;;;;;;;5.50;2.15;;;14.70;99.90;;;;;;4935255;29;20032;-73
2022/05/27 03:27:42;;;;;;;6.78;2.55;;;14.60;99.90;;;;;;4934887;29;20028;-73
2022/05/27 03:30:13;;;;;;;3.80;2.17;;;14.50;99.90;;;;;;4934575;29;20027;-73
2022/05/27 03:32:55;;;;;;;7.75;2.30;;;14.50;99.90;;;;;;4951104;29;20027;-73
2022/05/27 03:35:26;;;;;;;8.48;2.95;;;14.50;99.90;;;;;;4953680;28;20035;-73
2022/05/27 03:38:04;;;;;;;4.88;2.65;;;14.50;99.90;;;;;;4953851;28;20440;-73
2022/05/27 03:40:36;;;;;;;6.13;2.58;;;14.40;99.90;;;;;;4954102;28;20094;-73
2022/05/27 03:43:03;;;;;;;7.18;2.20;;;14.50;99.90;;;;;;4916080;29;20024;-73
2022/05/27 03:45:28;;;;;;;9.25;2.55;;;14.40;99.90;;;;;;4926749;29;20043;-73
2022/05/27 03:47:54;;;;;;;6.50;2.92;;;14.40;99.90;;;;;;4937126;29;20028;-73
2022/05/27 03:50:24;;;;;;;6.85;2.70;;;14.40;99.90;;;;;;4938990;29;20444;-73
2022/05/27 03:52:52;;;;;;;4.88;2.65;;;14.50;99.90;;;;;;4956632;29;20027;-73
2022/05/27 03:55:22;;;;;;;6.25;2.70;;;14.50;99.90;;;;;;4957424;28;20074;-73
2022/05/27 03:57:48;;;;;;;4.82;2.40;;;14.50;99.90;;;;;;4957398;28;20435;-73
2022/05/27 04:00:15;;;;;;;5.75;2.50;;;14.50;99.90;;;;;;4957250;29;20026;-73
2022/05/27 04:02:41;;;;;;;8.85;2.38;;;14.50;99.90;;;;;;4956240;28;20495;-72
2022/05/27 04:05:08;;;;;;;6.50;2.40;;;14.60;99.90;;;;;;4953193;28;20091;-73
2022/05/27 04:07:34;;;;;;;9.35;2.78;;;14.50;99.90;;;;;;4938417;29;20035;-73
2022/05/27 04:10:00;;;;;;;8.18;2.55;;;14.50;99.90;;;;;;4937637;29;20043;-73
2022/05/27 04:12:25;;;;;;;7.38;2.50;;;14.50;99.90;;;;;;4923751;29;20404;-72
2022/05/27 04:14:52;;;;;;;8.10;2.47;;;14.50;99.90;;;;;;4937406;29;20036;-73
2022/05/27 04:17:33;;;;;;;5.60;2.25;;;14.50;99.90;;;;;;4937539;29;20402;-73
2022/05/27 04:20:11;;;;;;;6.25;2.47;;;14.50;99.90;;;;;;4937693;29;20024;-73
2022/05/27 04:22:38;;;;;;;6.22;2.55;;;14.50;99.90;;;;;;4937789;29;20027;-73
2022/05/27 04:25:05;;;;;;;4.93;2.33;;;14.50;99.90;;;;;;4938090;29;20046;-73
2022/05/27 04:27:31;;;;;;;7.22;2.45;;;14.40;99.90;;;;;;4937946;29;20499;-73
2022/05/27 04:29:57;;;;;;;8.38;2.78;;;14.40;99.90;;;;;;4924860;29;20392;-72
2022/05/27 04:32:25;;;;;;;7.72;2.85;;;14.50;99.90;;;;;;4950587;29;20035;-73
2022/05/27 04:34:52;;;;;;;5.13;2.25;;;14.60;99.90;;;;;;4956761;28;20488;-73
2022/05/27 04:37:18;;;;;;;4.93;2.30;;;14.50;99.90;;;;;;4956038;28;20061;-73
2022/05/27 04:39:43;;;;;;;10.15;2.53;;;14.60;99.90;;;;;;4956835;28;20491;-73
2022/05/27 04:42:10;;;;;;;4.35;2.33;;;14.60;99.90;;;;;;4955841;28;20019;-74
2022/05/27 04:44:36;;;;;;;6.63;2.78;;;14.60;99.90;;;;;;4922531;28;20492;-73
2022/05/27 04:47:02;;;;;;;6.63;2.67;;;14.60;99.90;;;;;;4918202;29;20519;-73
2022/05/27 04:52:13;;;;;;;5.20;2.28;;;14.60;99.90;;;;;;4934205;29;20111;-73
2022/05/27 04:54:39;;;;;;;8.40;2.92;;;14.70;99.90;;;;;;4954180;29;20038;-74
2022/05/27 04:57:05;;;;;;;7.03;2.40;;;14.60;99.90;;;;;;4956407;28;20038;-73
2022/05/27 04:59:35;;;;;;;9.27;2.67;;;14.60;99.90;;;;;;4955396;28;20102;-73
2022/05/27 05:02:05;;;;;;;6.00;2.53;;;14.60;99.90;;;;;;4941566;29;20023;-72
2022/05/27 05:04:30;;;;;;;7.50;2.15;;;14.60;99.90;;;;;;4932721;29;20036;-73
2022/05/27 05:07:04;;;;;;;7.30;2.38;;;14.50;99.90;;;;;;4935374;29;20031;-72
2022/05/27 05:09:30;;;;;;;9.23;3.17;;;14.50;99.90;;;;;;4932905;29;20118;-73
2022/05/27 05:11:56;;;;;;;8.68;2.53;;;14.60;99.90;;;;;;4935888;29;20086;-73
2022/05/27 05:14:22;;;;;;;6.68;2.88;;;14.60;99.90;;;;;;4935177;29;20031;-73
2022/05/27 05:16:48;;;;;;;6.95;2.50;;;14.60;99.90;;;;;;4939683;29;20031;-73
2022/05/27 05:19:13;;;;;;;6.13;2.75;;;14.60;99.90;;;;;;4931695;29;20024;-79
2022/05/27 05:21:39;;;;;;;7.10;3.38;;;14.70;99.90;;;;;;4935253;29;20103;-78
2022/05/27 05:24:05;;;;;;;9.90;2.55;;;14.60;99.90;;;;;;4928844;29;20059;-79
2022/05/27 05:26:31;;;;;;;7.15;2.85;;;14.70;99.90;;;;;;4935746;29;20043;-73
2022/05/27 05:28:56;;;;;;;6.25;2.33;;;14.70;99.90;;;;;;4928785;29;20032;-73
2022/05/27 05:31:22;;;;;;;5.28;2.30;;;14.70;99.90;;;;;;4935524;29;20023;-73
2022/05/27 05:33:47;;;;;;;6.40;2.55;;;14.80;99.90;;;;;;4929333;29;20028;-72
2022/05/27 05:36:13;;;;;;;6.45;2.33;;;14.90;99.90;;;;;;4916785;29;20062;-73
2022/05/27 05:38:39;;;;;;;5.50;2.40;;;15.00;99.90;;;;;;4917163;29;20024;-73
2022/05/27 05:41:06;;;;;;;6.78;2.70;;;15.00;99.90;;;;;;4927568;29;20024;-73
2022/05/27 05:43:32;;;;;;;10.73;2.88;;;15.00;99.90;;;;;;4935426;29;20024;-73
2022/05/27 05:45:58;;;;;;;9.50;3.30;;;15.00;99.90;;;;;;4933051;29;20035;-73
2022/05/27 05:48:24;;;;;;;7.00;2.50;;;15.10;99.90;;;;;;4923058;29;20036;-73
2022/05/27 05:50:50;;;;;;;12.05;3.13;;;15.00;99.90;;;;;;4917020;29;20414;-73
2022/05/27 05:53:18;;;;;;;7.90;2.42;;;15.00;99.90;;;;;;4917115;29;20061;-73
2022/05/27 05:55:44;;;;;;;7.82;2.38;;;15.00;99.90;;;;;;4925550;29;20032;-72
2022/05/27 05:58:10;;;;;;;4.47;2.53;;;15.00;99.90;;;;;;4948531;29;20045;-73
2022/05/27 06:00:36;;;;;;;9.35;2.97;;;15.00;99.90;;;;;;4917846;28;20020;-73
2022/05/27 06:03:02;;;;;;;11.13;3.42;;;15.10;99.90;;;;;;4916683;29;20043;-74
2022/05/27 06:05:28;;;;;;;7.53;2.53;;;15.10;99.90;;;;;;4919211;29;20488;-73
2022/05/27 06:07:56;;;;;;;8.73;3.15;;;15.20;99.90;;;;;;4935328;29;20050;-79
2022/05/27 06:10:22;;;;;;;7.43;3.08;;;15.30;99.90;;;;;;4935060;29;20058;-72
2022/05/27 06:12:48;;;;;;;8.75;2.95;;;15.40;99.90;;;;;;4918378;29;20048;-74
2022/05/27 06:15:15;;;;;;;6.05;2.80;;;15.50;99.90;;;;;;4930933;28;20028;-74
2022/05/27 06:17:40;;;;;;;8.68;2.92;;;15.50;99.90;;;;;;4916872;29;20043;-74
2022/05/27 06:20:07;;;;;;;4.78;2.47;;;15.60;99.90;;;;;;4931351;29;20492;-74
2022/05/27 06:22:33;;;;;;;5.88;2.80;;;15.60;99.90;;;;;;4935277;29;20377;-73
2022/05/27 06:25:00;;;;;;;9.07;2.85;;;15.70;99.90;;;;;;4932998;29;20035;-74
2022/05/27 06:27:26;;;;;;;8.73;2.30;;;15.70;99.90;;;;;;4934455;29;20079;-74
2022/05/27 06:35:20;;;;;;;6.40;2.22;;;15.80;99.90;;;;;;4927693;29;20062;-74
2022/05/27 06:37:46;;;;;;;11.55;3.03;;;15.90;99.90;;;;;;4926738;29;20027;-74
2022/05/27 06:40:13;;;;;;;6.93;2.53;;;15.90;99.90;;;;;;4934711;29;20030;-74
2022/05/27 06:42:38;;;;;;;4.97;2.17;;;16.00;99.90;;;;;;4933553;29;20510;-74
2022/05/27 06:45:06;;;;;;;7.65;2.97;;;16.10;99.90;;;;;;4934607;29;20103;-74
2022/05/27 06:47:32;;;;;;;7.25;2.50;;;16.20;99.90;;;;;;4934919;29;20032;-74
2022/05/27 06:49:57;;;;;;;4.32;2.50;;;16.30;99.90;;;;;;4934452;29;20027;-74
2022/05/27 06:52:24;;;;;;;8.02;2.85;;;16.40;99.90;;;;;;4934405;29;20039;-74
2022/05/27 06:54:51;;;;;;;11.13;3.03;;;16.40;99.90;;;;;;4932994;29;20028;-74
2022/05/27 06:57:16;;;;;;;9.52;2.70;;;16.50;99.90;;;;;;4933008;29;20403;-74
2022/05/27 06:59:42;;;;;;;5.55;2.20;;;16.60;99.90;;;;;;4934138;29;20030;-74
2022/05/27 07:02:09;;;;;;;7.88;2.40;;;16.70;99.90;;;;;;4934430;29;20081;-74
2022/05/27 07:04:35;;;;;;;9.15;3.03;;;16.70;99.90;;;;;;4933453;29;20566;-74
2022/05/27 07:07:04;;;;;;;4.75;2.28;;;16.80;99.90;;;;;;4934611;29;20035;-74
2022/05/27 07:09:31;;;;;;;7.53;2.30;;;16.90;99.90;;;;;;4934103;29;20019;-74
2022/05/27 07:11:57;;;;;;;7.13;2.83;;;16.90;99.90;;;;;;4933421;29;20052;-74
2022/05/27 07:14:23;;;;;;;9.75;2.70;;;16.90;99.90;;;;;;4918013;29;20449;-74
2022/05/27 07:16:49;;;;;;;5.35;2.30;;;17.10;99.90;;;;;;4914996;29;20030;-74
2022/05/27 07:19:17;;;;;;;6.15;2.35;;;17.10;99.90;;;;;;4915094;29;20099;-74
2022/05/27 07:21:44;;;;;;;6.65;2.53;;;17.10;99.90;;;;;;4914789;29;20032;-74
2022/05/27 07:24:13;;;;;;;10.02;2.97;;;17.30;99.90;;;;;;4915568;29;20032;-72
2022/05/27 07:26:40;;;;;;;7.57;2.50;;;17.50;99.90;;;;;;4914564;29;20087;-74
2022/05/27 07:29:06;;;;;;;8.95;2.85;;;17.50;99.90;;;;;;4915317;29;20103;-74
2022/05/27 07:31:35;;;;;;;7.45;2.33;;;17.70;99.90;;;;;;4915243;29;20063;-74
2022/05/27 07:34:01;;;;;;;4.95;2.22;;;17.70;99.90;;;;;;4913784;29;20036;-74
2022/05/27 07:36:27;;;;;;;5.72;2.55;;;17.90;99.90;;;;;;4915234;29;20028;-74
2022/05/27 07:38:52;;;;;;;3.83;2.30;;;17.90;99.90;;;;;;4914811;29;20021;-74
2022/05/27 07:41:23;;;;;;;5.72;2.15;;;17.90;99.90;;;;;;4914895;29;20468;-76
2022/05/27 07:43:49;;;;;;;7.30;2.55;;;17.90;99.90;;;;;;4914843;29;20020;-75
2022/05/27 07:46:16;;;;;;;9.55;3.15;;;18.00;99.90;;;;;;4915044;29;20035;-74
2022/05/27 07:48:43;;;;;;;7.07;2.40;;;18.00;99.90;;;;;;4915116;29;20491;-74
2022/05/27 07:51:09;;;;;;;7.55;2.90;;;18.10;99.90;;;;;;4915183;29;20466;-74
2022/05/27 07:53:37;;;;;;;8.95;2.60;;;18.00;99.90;;;;;;4915194;29;20388;-74
2022/05/27 07:56:04;;;;;;;4.40;2.67;;;18.00;99.90;;;;;;4914391;29;20075;-74
2022/05/27 07:58:30;;;;;;;4.78;2.35;;;18.00;99.90;;;;;;4914993;29;20068;-74
2022/05/27 08:00:56;;;;;;;8.23;2.40;;;18.30;99.90;;;;;;4915011;29;20070;-74
2022/05/27 08:03:22;;;;;;;6.60;2.58;;;18.40;99.90;;;;;;4915111;29;20469;-74
2022/05/27 08:05:47;;;;;;;5.75;2.47;;;18.40;99.90;;;;;;4913508;29;20042;-74
2022/05/27 08:08:13;;;;;;;9.10;2.70;;;18.80;99.90;;;;;;4914919;29;20032;-74
2022/05/27 08:10:40;;;;;;;4.95;2.22;;;18.90;99.90;;;;;;4914586;29;20024;-73
2022/05/27 08:13:07;;;;;;;10.18;2.00;;;18.90;99.90;;;;;;4929846;29;20129;-74
2022/05/27 08:15:33;;;;;;;7.85;2.63;;;19.00;99.90;;;;;;4914981;29;20485;-74
2022/05/27 08:17:59;;;;;;;7.47;2.15;;;19.20;99.90;;;;;;4914703;29;20473;-74
2022/05/27 08:20:28;;;;;;;5.00;2.20;;;19.30;99.90;;;;;;4914829;29;20028;-74
2022/05/27 08:22:54;;;;;;;6.13;1.77;;;19.60;99.90;;;;;;4913909;29;20028;-73
2022/05/27 08:25:22;;;;;;;5.45;2.00;;;19.90;99.90;;;;;;4914917;29;20032;-74
2022/05/27 08:27:48;;;;;;;5.95;1.90;;;20.00;99.90;;;;;;4914767;29;20477;-74
2022/05/27 08:30:17;;;;;;;8.82;2.47;;;20.40;99.90;;;;;;4923506;29;20036;-74
2022/05/27 08:32:43;;;;;;;5.78;2.15;;;20.60;99.60;;;;;;4933582;29;20559;-74
2022/05/27 08:38:01;;;;;;;8.05;1.95;;;20.50;99.50;;;;;;4942416;29;20515;-75
2022/05/27 08:40:54;;;;;;;4.20;1.65;;;21.00;98.00;;;;;;4936871;29;20020;-73
2022/05/27 08:43:34;;;;;;;6.10;2.13;;;21.30;96.70;;;;;;4936465;29;20052;-74
2022/05/27 08:46:12;;;;;;;4.35;1.70;;;21.00;95.90;;;;;;4935382;29;20043;-74
2022/05/27 08:48:41;;;;;;;6.70;1.80;;;20.50;97.40;;;;;;4936590;29;20391;-74
2022/05/27 08:51:24;;;;;;;5.70;1.90;;;21.50;96.50;;;;;;4936148;29;20100;-74
2022/05/27 08:53:56;;;;;;;5.72;1.92;;;21.10;95.30;;;;;;4935824;29;20036;-74
2022/05/27 08:59:37;;;;;;;4.88;1.73;;;21.00;96.20;;;;;;4936639;29;20411;-74
2022/05/27 09:02:35;;;;;;;5.82;1.83;;;20.80;95.70;;;;;;4936698;29;20535;-74
2022/05/27 09:05:16;;;;;;;4.65;2.17;;;21.50;93.90;;;;;;4936062;29;20028;-74
2022/05/27 09:08:12;;;;;;;6.43;2.13;;;21.70;93.80;;;;;;4930907;29;20111;-73
2022/05/27 09:11:16;;;;;;;6.30;1.75;;;21.60;92.60;;;;;;4918183;29;20065;-74
2022/05/27 09:14:11;;;;;;;6.18;2.00;;;21.80;93.20;;;;;;4929579;29;20052;-74
2022/05/27 09:16:53;;;;;;;5.53;1.95;;;22.60;92.20;;;;;;4917438;29;20039;-74
2022/05/27 09:19:30;;;;;;;4.22;2.05;;;23.00;90.70;;;;;;4921395;29;20453;-74
2022/05/27 09:22:23;;;;;;;4.68;1.60;;;22.70;90.20;;;;;;4935804;29;20027;-74
2022/05/27 09:25:00;;;;;;;5.43;1.30;;;21.70;91.00;;;;;;4936022;29;20091;-74
2022/05/27 09:28:09;;;;;;;8.52;2.08;;;21.60;92.70;;;;;;4936159;29;20090;-74
2022/05/27 09:30:36;;;;;;;8.18;1.88;;;21.60;91.40;;;;;;4936387;29;20556;-74
2022/05/27 09:33:06;;;;;;;3.05;1.40;;;22.60;90.90;;;;;;4933983;29;20031;-74
2022/05/27 09:35:32;;;;;;;3.15;1.48;;;23.10;90.00;;;;;;4935057;29;20043;-74
2022/05/27 09:38:01;;;;;;;4.70;1.80;;;23.60;86.30;;;;;;4935901;29;20028;-74
2022/05/27 09:40:56;;;;;;;3.67;1.60;;;22.70;87.70;;;;;;4936014;29;20027;-74
2022/05/27 09:43:41;;;;;;;5.63;1.67;;;22.00;89.70;;;;;;4935636;29;20036;-74
2022/05/27 09:46:12;;;;;;;4.13;1.15;;;21.40;90.80;;;;;;4935105;29;20020;-75
2022/05/27 09:48:38;;;;;;;5.90;1.53;;;21.30;91.30;;;;;;4936334;29;20032;-77
2022/05/27 09:51:07;;;;;;;13.48;1.75;;;21.10;91.10;;;;;;4934477;29;20050;-76
2022/05/27 09:53:48;;;;;;;8.65;1.50;;;22.00;90.40;;;;;;4935702;29;20494;-74
2022/05/27 09:56:16;;;;;;;3.33;1.60;;;22.70;86.70;;;;;;4935097;29;20116;-74
2022/05/27 09:58:46;;;;;;;5.03;1.40;;;23.50;86.90;;;;;;4935506;29;20440;-73
2022/05/27 10:01:25;;;;;;;4.28;1.60;;;23.00;85.70;;;;;;4934495;29;20031;-73
2022/05/27 10:04:06;;;;;;;7.65;1.85;;;22.80;86.60;;;;;;4935170;29;20055;-77
2022/05/27 10:06:34;;;;;;;4.53;1.48;;;22.50;87.30;;;;;;4935277;29;20409;-74
2022/05/27 10:09:04;;;;;;;12.20;1.65;;;21.80;89.30;;;;;;4934582;29;20040;-73
2022/05/27 10:11:35;;;;;;;4.55;1.60;;;21.60;90.40;;;;;;4935232;29;20533;-73
2022/05/27 10:14:10;;;;;;;11.27;1.13;;;21.60;90.70;;;;;;4926490;29;20091;-73
2022/05/27 10:16:38;;;;;;;3.88;1.45;;;22.90;87.90;;;;;;4916230;29;20066;-72
2022/05/27 10:19:27;;;;;;;3.97;1.50;;;23.00;85.80;;;;;;4915568;29;20575;-73
2022/05/27 10:21:57;;;;;;;5.78;2.30;;;22.80;87.50;;;;;;4910990;29;20548;-73
2022/05/27 10:24:30;;;;;;;9.02;1.85;;;22.60;87.40;;;;;;4916395;29;20079;-73
2022/05/27 10:27:17;;;;;;;4.47;1.75;;;22.10;89.40;;;;;;4916393;29;20103;-74
2022/05/27 10:29:55;;;;;;;7.82;1.80;;;22.20;90.00;;;;;;4935003;29;20053;-73
2022/05/27 10:32:36;;;;;;;4.38;2.10;;;23.60;87.50;;;;;;4934442;29;20106;-73
2022/05/27 10:35:29;;;;;;;4.82;1.90;;;23.20;85.70;;;;;;4931892;29;20083;-74
2022/05/27 10:38:19;;;;;;;7.35;1.70;;;23.80;86.10;;;;;;4926828;29;20035;-73
2022/05/27 10:41:09;;;;;;;5.70;1.70;;;22.90;86.10;;;;;;4935008;29;20031;-73
2022/05/27 10:43:54;;;;;;;4.90;1.50;;;22.80;88.90;;;;;;4935302;29;20091;-74
2022/05/27 10:46:23;;;;;;;6.53;1.80;;;23.00;87.90;;;;;;4934625;29;20452;-74
2022/05/27 10:49:01;;;;;;;5.95;1.40;;;22.50;87.30;;;;;;4934682;29;20020;-73
2022/05/27 10:51:52;;;;;;;3.88;1.55;;;21.80;89.20;;;;;;4935454;29;20027;-73
2022/05/27 10:54:27;;;;;;;5.80;1.38;;;22.70;88.20;;;;;;4947110;29;20047;-73
2022/05/27 11:03:32;;;;;;;4.72;1.42;;;22.10;88.50;;;;;;4913687;29;20047;-73
2022/05/27 11:06:50;;;;;;;5.05;1.40;;;21.90;89.00;;;;;;4913838;29;20078;-73
2022/05/27 11:09:28;;;;;;;2.75;1.17;;;21.70;89.20;;;;;;4872939;29;20044;-73
2022/05/27 11:12:06;;;;;;;3.97;1.45;;;22.80;87.20;;;;;;4913885;29;20135;-74
2022/05/27 11:17:37;;;;;;;4.75;1.33;;;24.00;83.40;;;;;;4913214;29;20104;-73
2022/05/27 11:20:24;;;;;;;5.50;1.33;;;24.70;82.50;;;;;;4914027;29;20107;-74
2022/05/27 11:22:55;;;;;;;2.90;1.45;;;23.70;80.80;;;;;;4913794;29;20111;-73
2022/05/27 11:25:26;;;;;;;2.50;1.07;;;23.50;83.10;;;;;;4913793;29;20044;-73
2022/05/27 11:28:11;;;;;;;3.45;1.27;;;23.00;83.00;;;;;;4914199;29;20040;-74
2022/05/27 11:30:49;;;;;;;3.67;1.55;;;23.40;83.00;;;;;;4947148;29;20051;-73
2022/05/27 11:33:26;;;;;;;3.97;1.58;;;23.60;82.40;;;;;;4935286;29;20047;-73
2022/05/27 11:36:11;;;;;;;4.35;1.35;;;23.30;82.80;;;;;;4952565;29;20032;-73
2022/05/27 11:38:56;;;;;;;3.05;1.40;;;22.60;83.80;;;;;;4953981;28;20054;-73
2022/05/27 11:41:28;;;;;;;2.67;1.30;;;23.00;84.40;;;;;;4950674;29;20513;-73
2022/05/27 11:44:03;;;;;;;;;;;23.90;82.20;;;;;;4935062;29;20031;-73
2022/05/27 11:46:48;;;;;;;4.72;1.25;;;24.20;78.50;;;;;;4933854;29;19906;-73
2022/05/27 11:49:35;;;;;;;4.63;1.25;;;23.60;79.50;;;;;;4934243;29;20028;-73
2022/05/27 11:52:14;;;;;;;3.78;1.30;;;22.80;83.00;;;;;;4932304;29;20028;-73
2022/05/27 11:54:50;;;;;;;5.30;1.85;;;22.60;82.90;;;;;;4931406;29;20031;-73
2022/05/27 11:57:27;;;;;;;7.35;1.50;;;23.30;82.30;;;;;;4933367;29;20110;-74
2022/05/27 12:00:00;;;;;;;5.13;1.58;;;24.10;80.60;;;;;;4933712;29;20043;-73
2022/05/27 12:03:16;;;;;;;4.95;1.50;;;24.40;78.20;;;;;;4932742;29;20070;-74
2022/05/27 12:05:48;;;;;;;4.05;1.60;;;24.80;77.10;;;;;;4931787;29;20070;-73
2022/05/27 12:08:22;;;;;;;4.57;1.35;;;24.10;78.60;;;;;;4932949;29;20439;-72
2022/05/27 12:11:08;;;;;;;4.65;1.60;;;23.60;79.90;;;;;;4920867;29;20080;-73
2022/05/27 12:13:54;;;;;;;2.30;1.30;;;23.30;81.40;;;;;;4889260;29;20110;-74
2022/05/27 12:16:26;;;;;;;2.78;1.23;;;23.10;83.60;;;;;;4896563;29;20048;-73
2022/05/27 12:19:20;;;;;;;4.80;1.50;;;23.10;82.50;;;;;;4897509;29;20037;-74
2022/05/27 12:21:57;;;;;;;2.67;1.27;;;23.00;80.50;;;;;;4897267;29;20033;-73
2022/05/27 12:24:34;;;;;;;3.20;1.40;;;23.80;80.00;;;;;;4896979;29;20045;-73
2022/05/27 12:27:03;;;;;;;6.47;1.33;;;24.70;78.80;;;;;;4897826;29;20481;-72
2022/05/27 14:00:22;;;;;;;4.30;1.42;;;24.70;75.60;;;;;;5129791;27;20114;-71
2022/05/27 14:02:49;;;;;;;;;;;24.30;75.10;;;;;;5129308;28;20036;-73
2022/05/27 14:05:24;;;;;;;4.78;1.75;;;23.90;75.90;;;;;;5129592;28;19991;-72
2022/05/27 14:07:56;;;;;;;2.88;1.15;;;23.80;77.00;;;;;;5129645;28;20061;-73
2022/05/27 14:10:25;;;;;;;3.97;1.30;;;23.70;77.10;;;;;;5129698;28;20047;-75
2022/05/27 14:12:53;;;;;;;2.92;1.40;;;24.30;77.00;;;;;;5127401;28;20087;-75
2022/05/27 14:15:19;;;;;;;8.48;1.42;;;24.90;75.90;;;;;;5129713;27;20039;-74
2022/05/27 14:17:47;;;;;;;4.35;1.65;;;24.60;74.90;;;;;;5129211;27;20130;-75
2022/05/27 14:22:39;;;;;;;6.15;1.63;;;24.00;76.10;;;;;;5129374;27;20034;-75
2022/05/27 14:23:20;;;;;;;2.60;1.20;;;24.30;75.20;;;;;;5128921;28;20211;-74
2022/05/27 14:25:47;;;;;;;3.17;1.38;;;24.20;76.50;;;;;;5128673;28;20050;-75
2022/05/27 14:28:40;;;;;;;4.07;1.30;;;24.00;76.20;;;;;;5129246;27;20511;-75
2022/05/27 14:31:19;;;;;;;10.63;1.95;;;23.90;77.30;;;;;;5124681;28;20042;-74
2022/05/27 14:33:51;;;;;;;3.55;1.42;;;24.20;77.20;;;;;;5128940;27;20027;-74
2022/05/27 14:36:20;;;;;;;3.15;1.20;;;24.50;77.60;;;;;;5128836;27;20020;-74
2022/05/27 14:38:49;;;;;;;3.13;1.23;;;24.60;75.60;;;;;;5128136;27;20045;-74
2022/05/27 14:41:19;;;;;;;3.55;1.60;;;24.20;76.40;;;;;;5128630;27;20024;-74
2022/05/27 14:43:47;;;;;;;3.58;1.20;;;24.00;77.30;;;;;;5128813;28;20019;-74
2022/05/27 14:46:28;;;;;;;4.68;1.65;;;23.80;78.30;;;;;;5129189;27;20012;-74
2022/05/27 14:49:01;;;;;;;5.43;1.70;;;23.80;77.90;;;;;;5128091;27;20034;-74
2022/05/27 14:51:37;;;;;;;3.60;1.10;;;24.40;77.50;;;;;;5127529;28;20027;-74
2022/05/27 14:54:36;;;;;;;3.83;1.35;;;24.90;75.30;;;;;;5128520;27;20023;-74
2022/05/27 14:57:19;;;;;;;4.60;1.27;;;25.00;74.20;;;;;;5127730;27;20030;-74
2022/05/27 15:00:11;;;;;;;4.03;1.08;;;24.60;75.30;;;;;;5119126;27;20122;-74
2022/05/27 15:02:43;;;;;;;3.88;1.20;;;24.30;75.80;;;;;;5108667;28;20145;-72
2022/05/27 15:05:27;;;;;;;4.13;1.40;;;24.40;76.40;;;;;;5108176;28;20552;-74
2022/05/27 15:08:15;;;;;;;4.18;1.08;;;24.30;76.70;;;;;;5107907;28;20023;-74
2022/05/27 15:10:41;;;;;;;2.50;1.00;;;24.60;76.60;;;;;;5099912;28;20020;-74
2022/05/27 15:13:47;;;;;;;3.75;1.63;;;24.90;76.10;;;;;;5114324;28;20012;-74
2022/05/27 15:16:22;;;;;;;6.45;1.23;;;25.10;74.50;;;;;;5072030;28;20032;-74
2022/05/27 15:18:59;;;;;;;3.17;1.35;;;24.80;74.10;;;;;;5054519;28;20029;-73
2022/05/27 15:22:18;;;;;;;2.72;1.10;;;24.40;75.10;;;;;;5071584;28;20172;-74